Pagina principale
METAR-TAF:

METAR-TAF

Aeroporti :

Aeroporto di Torino-Caselle

Torino, Italia

latitudine: 45-13N, longitudine: 007-39E, altezza: 301 m

Osservazione

Il bollettino è stato emesso 26 minuti fa, alle 16:50 UTC
Vento 8 kt da ovest
Temperature 25°C
Umidità 26%
Pressione 1000 hPa
Visibilità 10 km o più
nessuna nube inferiore a 1500 m e nessun cumulonembo

METAR: LIMF 051650Z 28008KT CAVOK 25/04 Q1000

Ora: 19:16 (17:16 UTC)

Previsione

Il bollettino è stato emesso 6 ore e 16 minuti fa, alle 11:00 UTC
Previsione valida dal 05 alle 12 UTC al 06 alle 12 UTC
Vento 5 kt da direzioni variabili
Visibilità: 8000 m
Nuvoloso ad un'altezza di 3000 ft

TAF: LIMF 051100Z 0512/0612 VRB05KT 8000 BKN030

Osservazioni e previsioni meteorologiche di più di 4000 aeroporti (messaggi METAR e TAF).

Le stazioni disponibili sono rappresentate dai dischi gialli e rossi sulla carta.

Puntare il mouse per vedere il nome della stazione.

Clicca sopra per visualizzare le osservazioni e previsioni meteorologiche.

Per cambiare la mappa : fare clic sui pulsanti verdi con una croce nera per ingrandire, il pulsante verde con un trattino per diminuire, o sulla freccia verde per le mappe adiacenti.


METAR-TAF: